Home   Weather   Italy   Livorno   Past weeks
Flag for Italy

Past Weather in Livorno, Italy — Yesterday and Last 2 Weeks

Currently: 73 °F. Passing clouds. (Weather station: Pisa / S. Giusto, Italy). See more current weather

Past Weather in Livorno — Graph

°F

Livorno Temperature Yesterday

Maximum temperature yesterday: 84 °F (at 1:45 pm)
Minimum temperature yesterday: 72 °F (at 3:15 am)
Average temperature yesterday: 77 °F

High & Low Weather Summary for the Past Weeks

 TemperatureHumidityPressure
High91 °F (Jul 19, 2:45 pm)100% (Jul 9, 7:15 am)30.09 "Hg (Jul 9, 7:15 am)
Low59 °F (Jul 10, 5:45 am)31% (Jul 18, 1:15 pm)29.74 "Hg (Jul 13, 5:15 am)
Average74 °F72%29.93 "Hg
* Reported Jul 9 12:15 am — Jul 24 12:15 am, Livorno. Weather by CustomWeather, © 2021

Note: Actual official high and low records may vary slightly from our data, if they occured in-between our weather recording intervals... More about our weather records

Livorno Weather History for the Previous 24 Hours

Scroll right to see more
 ConditionsComfort  
Time TempWeatherWind HumidityBarometerVisibility
12:15 am
Sat, Jul 24
73 °FPassing clouds.3 mph94%29.95 "HgN/A
11:45 pm
Fri, Jul 23
73 °FPassing clouds.2 mph94%29.95 "HgN/A
11:15 pm75 °FClear.3 mph89%29.95 "Hg10 mi
10:45 pm75 °FClear.2 mph89%29.95 "Hg10 mi
10:15 pm75 °FClear.2 mph89%29.95 "Hg10 mi
9:45 pm75 °FClear.5 mph89%29.92 "Hg10 mi
9:15 pm75 °FPassing clouds.5 mph89%29.92 "HgN/A
8:45 pm77 °FPassing clouds.6 mph83%29.92 "HgN/A
8:15 pm77 °FPassing clouds.6 mph83%29.95 "HgN/A
7:45 pm79 °FPassing clouds.8 mph79%29.95 "HgN/A
7:15 pm79 °FPassing clouds.8 mph79%29.95 "HgN/A
6:45 pm79 °FPassing clouds.9 mph74%29.95 "HgN/A
6:15 pm79 °FSunny.9 mph79%29.95 "Hg10 mi
5:45 pm81 °FSunny.9 mph66%29.95 "Hg10 mi
5:15 pm81 °FSunny.10 mph66%29.95 "Hg10 mi
4:45 pm81 °FSunny.8 mph66%29.95 "Hg10 mi
4:15 pm81 °FSunny.3 mph66%29.95 "Hg10 mi
3:45 pm81 °FSunny.12 mph70%29.95 "Hg10 mi
3:15 pm82 °FSunny.10 mph62%29.98 "Hg10 mi
2:45 pm82 °FSunny.9 mph62%29.98 "Hg10 mi
2:15 pm82 °FSunny.10 mph62%29.98 "Hg10 mi
1:45 pm84 °FSunny.12 mph58%29.98 "Hg10 mi
1:15 pm82 °FPassing clouds.10 mph62%29.98 "HgN/A
12:45 pm82 °FPassing clouds.10 mph66%29.98 "HgN/A
12:15 pm82 °FPassing clouds.10 mph74%29.98 "HgN/A
11:45 am82 °FScattered clouds.9 mph70%29.98 "HgN/A
11:15 am81 °FScattered clouds.3 mph74%29.98 "HgN/A
10:45 am81 °FPartly sunny.6 mph74%29.98 "HgN/A
10:15 am81 °FPartly sunny.7 mph74%29.98 "HgN/A
9:45 am81 °FPartly sunny.3 mph70%29.98 "HgN/A
9:15 am79 °FPartly sunny.3 mph74%29.98 "HgN/A
8:45 am73 °FScattered clouds.3 mph83%29.98 "HgN/A
7:45 am73 °FScattered clouds.2 mph94%29.98 "HgN/A
7:15 am73 °FBroken clouds.2 mph94%29.98 "HgN/A
6:45 am73 °FBroken clouds.3 mph94%29.98 "HgN/A
6:15 am73 °FBroken clouds.1 mph94%29.98 "HgN/A
5:45 am73 °FPartly cloudy.2 mph94%29.98 "HgN/A
5:15 am73 °FPassing clouds.3 mph94%29.98 "HgN/A
4:45 am73 °FPassing clouds.3 mph94%29.98 "HgN/A
4:15 am72 °FPassing clouds.3 mph100%29.98 "HgN/A
3:45 am72 °FPassing clouds.2 mph100%30.01 "HgN/A
3:15 am72 °FPassing clouds.2 mph100%30.01 "HgN/A
2:45 am73 °FPassing clouds.2 mph94%30.01 "HgN/A
2:15 am73 °FPassing clouds.5 mph94%30.01 "HgN/A
1:45 am73 °FPassing clouds.3 mph100%30.01 "HgN/A
1:15 am73 °FPassing clouds.5 mph94%30.01 "HgN/A
Weather by CustomWeather, © 2021

See weather overview